Time;durP1;ratioP1;P1;durP2;ratioP2;P2;SDS_P1;SDS_P2;PMS_P1;PMS_P2;Temp;Humidity;BMP_temperature;BMP_pressure;BME280_temperature;BME280_humidity;BME280_pressure;Samples;Min_cycle;Max_cycle;Signal;HPM_P1;HPM_P2
2022/03/31 00:01:18;;;;;;;7.90;6.50;;;3.10;12.20;;;2.90;56.31;99969.19;4957979;29;20278;-72
2022/03/31 00:03:47;;;;;;;9.07;7.90;;;3.00;13.60;;;2.89;56.26;99960.31;4957397;29;20211;-72
2022/03/31 00:06:16;;;;;;;6.97;6.28;;;3.00;14.40;;;2.87;56.39;99970.34;4957600;29;20501;-72
2022/03/31 00:08:45;;;;;;;9.27;6.95;;;3.00;14.40;;;2.85;56.16;99969.72;4957389;29;20180;-72
2022/03/31 00:11:14;;;;;;;13.18;7.25;;;3.00;14.90;;;2.84;55.94;99967.19;4956878;29;20218;-71
2022/03/31 00:13:43;;;;;;;14.55;7.15;;;3.00;15.20;;;2.82;56.08;99971.88;4956356;29;20251;-72
2022/03/31 00:16:14;;;;;;;9.95;6.90;;;2.90;12.00;;;2.73;56.16;99968.41;4957425;29;20276;-71
2022/03/31 00:18:43;;;;;;;10.82;7.50;;;2.90;11.90;;;2.70;56.41;99979.47;4956499;29;20283;-72
2022/03/31 00:21:12;;;;;;;7.90;6.70;;;2.80;12.10;;;2.70;56.08;99971.44;4956758;29;20255;-71
2022/03/31 00:23:40;;;;;;;11.60;7.28;;;2.90;12.00;;;2.67;56.13;99977.13;4956335;29;20203;-72
2022/03/31 00:26:09;;;;;;;9.18;6.70;;;2.80;11.90;;;2.63;56.24;99981.16;4956698;29;20180;-71
2022/03/31 00:28:38;;;;;;;10.10;7.30;;;2.80;12.00;;;2.58;55.97;99972.81;4956266;29;20252;-71
2022/03/31 00:31:07;;;;;;;6.93;6.28;;;2.70;13.70;;;2.53;56.24;99975.16;4955883;29;20262;-72
2022/03/31 00:33:37;;;;;;;10.45;6.78;;;2.70;17.00;;;2.52;56.46;99973.50;4956816;29;20208;-71
2022/03/31 00:36:06;;;;;;;9.93;6.82;;;2.60;14.10;;;2.52;56.24;99979.69;4956442;29;20196;-72
2022/03/31 00:38:35;;;;;;;13.25;5.45;;;2.60;15.10;;;2.45;56.10;99977.88;4956796;29;20200;-72
2022/03/31 00:41:04;;;;;;;9.60;6.72;;;2.60;19.30;;;2.43;55.87;99974.53;4959362;29;20310;-72
2022/03/31 00:43:34;;;;;;;7.85;7.15;;;2.60;26.90;;;2.35;56.04;99970.06;4958563;29;20177;-72
2022/03/31 00:46:02;;;;;;;6.88;6.15;;;2.60;14.20;;;2.30;56.05;99975.09;4958660;29;20204;-71
2022/03/31 00:48:31;;;;;;;7.47;6.50;;;2.50;20.20;;;2.25;55.91;99971.25;4941816;29;20188;-72
2022/03/31 00:51:02;;;;;;;15.07;6.57;;;2.50;21.50;;;2.19;56.23;99973.63;4966247;29;20222;-72
2022/03/31 00:53:32;;;;;;;7.22;5.75;;;;;;;2.25;56.06;99960.59;4971419;29;20180;-72
2022/03/31 00:56:03;;;;;;;8.05;6.35;;;2.30;11.70;;;2.17;56.39;99972.97;4957776;29;20569;-71
2022/03/31 00:58:33;;;;;;;9.75;6.30;;;2.30;20.60;;;2.19;56.04;99962.09;4956773;29;20182;-72
2022/03/31 01:01:02;;;;;;;10.23;7.05;;;2.30;19.40;;;2.10;56.27;99963.97;4957352;28;20627;-72
2022/03/31 01:03:32;;;;;;;8.82;5.93;;;2.20;17.00;;;2.07;56.14;99968.81;4956828;29;20176;-72
2022/03/31 01:06:02;;;;;;;6.93;5.72;;;2.30;20.40;;;2.05;56.24;99960.97;4956887;29;20184;-72
2022/03/31 01:08:31;;;;;;;7.22;6.40;;;2.20;24.00;;;2.03;56.13;99964.81;4940132;29;20264;-71
2022/03/31 01:11:01;;;;;;;8.98;5.63;;;2.10;16.30;;;2.01;56.15;99964.97;4956663;29;20278;-72
2022/03/31 01:13:30;;;;;;;13.65;5.68;;;2.20;12.00;;;1.99;56.05;99961.63;4956226;29;20176;-72
2022/03/31 01:15:59;;;;;;;5.68;5.13;;;2.20;11.80;;;1.97;56.23;99963.66;4939052;29;20204;-71
2022/03/31 01:18:28;;;;;;;7.13;6.05;;;2.20;11.70;;;1.90;56.25;99957.31;4956580;29;20192;-71
2022/03/31 01:20:57;;;;;;;9.05;5.30;;;2.10;11.70;;;1.83;56.49;99959.03;4955439;29;20707;-72
2022/03/31 01:23:28;;;;;;;8.38;6.45;;;2.00;11.90;;;1.74;56.56;99957.38;4938484;29;20239;-72
2022/03/31 01:25:58;;;;;;;7.60;5.55;;;2.00;12.00;;;1.83;56.59;99961.69;4955648;29;20208;-73
2022/03/31 01:28:33;;;;;;;7.75;5.63;;;2.00;12.10;;;1.73;56.62;99966.34;4955545;29;20536;-72
2022/03/31 01:31:05;;;;;;;8.60;6.07;;;1.90;12.00;;;1.73;56.73;99963.69;4955854;29;20231;-72
2022/03/31 01:33:34;;;;;;;11.57;5.93;;;1.90;12.20;;;1.65;56.79;99969.00;4955381;29;20188;-72
2022/03/31 01:36:05;;;;;;;5.65;4.85;;;1.90;12.20;;;1.64;56.55;99972.69;4954883;29;20203;-71
2022/03/31 01:38:36;;;;;;;11.35;5.90;;;1.80;12.00;;;1.62;56.80;99970.19;4957559;29;20191;-72
2022/03/31 01:41:07;;;;;;;6.82;5.88;;;1.80;12.30;;;1.56;57.08;99970.00;4941604;29;20235;-72
2022/03/31 01:43:36;;;;;;;18.38;6.80;;;1.80;12.50;;;1.46;57.31;99969.34;4940023;29;20200;-74
2022/03/31 01:46:07;;;;;;;12.32;5.93;;;1.70;12.60;;;1.49;57.02;99972.53;4956288;29;20168;-72
2022/03/31 01:48:37;;;;;;;12.07;5.90;;;1.70;12.60;;;1.47;57.08;99965.69;4956084;29;20177;-71
2022/03/31 01:51:07;;;;;;;7.20;5.20;;;1.70;12.60;;;1.45;57.14;99978.38;4937801;29;20266;-71
2022/03/31 01:53:40;;;;;;;9.13;5.70;;;1.60;12.70;;;1.48;57.25;99972.69;4955000;29;20259;-72
2022/03/31 01:56:09;;;;;;;7.28;5.65;;;1.70;12.80;;;1.43;57.50;99973.19;4953854;29;20223;-71
2022/03/31 01:58:38;;;;;;;7.60;5.55;;;1.60;12.80;;;1.40;57.44;99973.53;4953619;29;20295;-72
2022/03/31 02:01:08;;;;;;;7.75;5.32;;;1.60;12.90;;;1.35;57.35;99967.88;4954713;29;20208;-71
2022/03/31 02:03:37;;;;;;;8.80;5.53;;;1.50;12.90;;;1.35;57.37;99970.53;4953231;29;20195;-71
2022/03/31 02:06:06;;;;;;;6.13;4.30;;;1.60;12.90;;;1.27;57.35;99976.66;4954524;29;20192;-72
2022/03/31 02:08:37;;;;;;;9.90;5.47;;;1.50;13.00;;;1.22;57.92;99971.00;4955317;29;20176;-71
2022/03/31 02:11:07;;;;;;;10.02;5.80;;;1.50;13.10;;;1.23;57.57;99975.34;4937934;29;20220;-71
2022/03/31 02:13:36;;;;;;;6.60;4.55;;;1.40;13.00;;;1.18;57.58;99977.66;4954295;28;20267;-71
2022/03/31 02:16:06;;;;;;;9.00;6.38;;;1.40;13.20;;;1.16;57.43;99974.31;4954315;29;20184;-72
2022/03/31 02:18:36;;;;;;;8.63;4.97;;;1.40;13.20;;;1.12;57.81;99972.97;4937604;29;20683;-72
2022/03/31 02:21:05;;;;;;;8.95;5.25;;;1.30;13.30;;;1.05;57.98;99971.16;4953379;29;20224;-72
2022/03/31 02:23:34;;;;;;;5.43;4.75;;;1.30;13.40;;;1.02;57.93;99972.28;4937401;29;20215;-72
2022/03/31 02:26:05;;;;;;;10.93;5.43;;;1.30;13.60;;;1.04;58.11;99978.31;4937294;29;20255;-72
2022/03/31 02:28:43;;;;;;;7.25;5.43;;;1.20;13.60;;;1.00;57.87;99978.78;4954484;29;20185;-72
2022/03/31 02:31:30;;;;;;;6.13;4.70;;;1.20;13.60;;;0.97;58.04;99976.47;4937089;29;20212;-71
2022/03/31 02:34:10;;;;;;;9.07;5.28;;;1.20;13.60;;;0.99;57.80;99980.63;4952896;29;20288;-72
2022/03/31 02:36:57;;;;;;;8.55;4.65;;;1.20;13.50;;;0.90;58.29;99981.59;4937091;29;20664;-71
2022/03/31 02:39:41;;;;;;;7.97;4.88;;;1.10;13.60;;;0.87;58.33;99989.91;4938233;29;20306;-72
2022/03/31 02:42:22;;;;;;;9.52;4.65;;;1.10;13.70;;;0.80;58.33;99978.22;4931317;29;20235;-72
2022/03/31 02:45:01;;;;;;;6.03;5.35;;;1.00;13.80;;;0.83;58.57;99972.56;4954163;29;20344;-72
2022/03/31 02:47:34;;;;;;;7.28;5.43;;;1.00;14.00;;;0.79;58.17;99966.75;4958379;29;20606;-72
2022/03/31 02:50:03;;;;;;;6.32;4.57;;;1.00;14.00;;;0.78;58.35;99980.22;4956390;29;20219;-71
2022/03/31 02:55:28;;;;;;;5.90;4.60;;;1.00;14.10;;;0.71;58.47;99977.38;4955001;29;20184;-71
2022/03/31 02:58:01;;;;;;;5.03;4.18;;;0.90;14.30;;;0.67;58.57;99975.19;4955042;29;20176;-73
2022/03/31 03:00:33;;;;;;;5.40;4.55;;;0.90;14.40;;;0.63;58.89;99973.88;4957533;29;20299;-73
2022/03/31 03:03:04;;;;;;;8.45;4.30;;;0.90;14.50;;;0.60;58.51;99983.00;4953480;29;20195;-72
2022/03/31 03:05:34;;;;;;;5.45;4.38;;;0.80;14.30;;;0.59;58.88;99973.31;4956529;29;20260;-71
2022/03/31 03:08:04;;;;;;;10.25;5.32;;;0.80;14.60;;;0.55;58.76;99968.47;4960390;29;20199;-72
2022/03/31 03:10:33;;;;;;;8.55;5.07;;;0.70;14.50;;;0.50;58.80;99971.63;4957259;29;20299;-72
2022/03/31 03:13:04;;;;;;;8.20;4.40;;;0.70;14.50;;;0.53;58.56;99970.50;4955652;29;20181;-72
2022/03/31 03:15:33;;;;;;;6.45;5.00;;;0.70;14.40;;;0.48;58.35;99975.47;4959861;29;20183;-71
2022/03/31 03:18:03;;;;;;;8.77;5.45;;;0.70;14.50;;;0.39;58.53;99964.75;4958909;29;20177;-73
2022/03/31 03:20:31;;;;;;;7.15;4.50;;;0.70;15.00;;;0.41;58.81;99973.44;4955782;29;20257;-71
2022/03/31 03:23:00;;;;;;;9.23;5.95;;;0.60;14.50;;;0.38;58.68;99972.91;4957436;29;20180;-72
2022/03/31 03:25:30;;;;;;;6.40;5.32;;;0.60;14.50;;;0.36;58.27;99980.22;4959993;28;20698;-71
2022/03/31 03:27:59;;;;;;;8.18;5.68;;;0.60;14.60;;;0.34;58.20;99982.19;4962989;29;20184;-71
2022/03/31 03:30:29;;;;;;;6.32;5.50;;;0.50;14.60;;;0.30;58.66;99986.16;4959881;29;20275;-71
2022/03/31 03:32:59;;;;;;;8.55;4.97;;;0.50;14.60;;;0.30;58.18;99971.03;4955622;29;20176;-71
2022/03/31 03:35:28;;;;;;;9.70;6.05;;;0.50;14.40;;;0.20;58.78;99970.31;4955062;29;20192;-72
2022/03/31 03:37:57;;;;;;;7.80;5.60;;;0.50;14.40;;;0.22;58.41;99973.66;4953127;29;20610;-71
2022/03/31 03:40:26;;;;;;;6.88;4.93;;;0.50;14.30;;;0.22;58.39;99971.00;4953080;29;20654;-71
2022/03/31 03:42:55;;;;;;;7.00;4.90;;;0.40;14.30;;;0.16;58.43;99968.13;4937275;29;20621;-71
2022/03/31 03:45:24;;;;;;;6.55;4.80;;;0.40;14.30;;;0.17;58.10;99967.16;4954472;28;20203;-71
2022/03/31 03:47:56;;;;;;;7.60;4.60;;;0.40;14.10;;;0.12;58.21;99967.63;4954492;29;20591;-71
2022/03/31 03:51:02;;;;;;;8.75;4.80;;;0.30;14.00;;;0.09;57.81;99962.63;4952544;28;20208;-72
2022/03/31 03:54:28;;;;;;;6.55;4.22;;;0.30;14.00;;;0.04;58.17;99964.94;4953808;29;20294;-72
2022/03/31 03:57:08;;;;;;;9.48;4.10;;;0.30;14.10;;;0.06;58.28;99965.59;4937158;29;20196;-72
2022/03/31 03:59:56;;;;;;;5.25;4.13;;;0.20;14.20;;;0.06;57.97;99960.25;4937205;29;20230;-73
2022/03/31 04:02:43;;;;;;;10.07;5.20;;;0.30;14.20;;;0.00;58.19;99955.59;4953618;29;20210;-72
2022/03/31 04:05:13;;;;;;;7.05;4.50;;;0.20;14.20;;;-0.01;58.65;99946.78;4962548;29;20192;-72
2022/03/31 04:07:42;;;;;;;7.00;5.13;;;0.20;14.20;;;0.01;58.28;99954.56;4967268;29;20176;-71
2022/03/31 04:10:11;;;;;;;6.18;4.70;;;0.20;14.30;;;0.01;58.17;99951.91;4969354;29;20208;-72
2022/03/31 04:12:42;;;;;;;5.47;4.82;;;0.20;14.10;;;0.01;57.76;99949.25;4973467;29;20196;-72
2022/03/31 04:15:19;;;;;;;7.47;4.15;;;0.20;14.20;;;-0.02;58.30;99952.25;4969170;29;20202;-72
2022/03/31 04:17:48;;;;;;;4.68;3.95;;;0.20;14.10;;;-0.10;58.75;99946.88;4969441;29;20409;-72
2022/03/31 04:20:19;;;;;;;4.95;4.38;;;0.20;14.30;;;-0.04;58.30;99946.25;4964053;29;20204;-72
2022/03/31 04:22:48;;;;;;;6.13;3.80;;;0.20;14.20;;;-0.07;57.75;99954.53;4954733;29;20172;-71
2022/03/31 04:25:17;;;;;;;3.55;3.25;;;0.10;14.10;;;-0.14;58.25;99948.16;4954254;29;20548;-71
2022/03/31 04:27:46;;;;;;;10.05;5.03;;;0.10;14.10;;;-0.13;58.19;99948.03;4954195;29;20243;-71
2022/03/31 04:30:20;;;;;;;5.22;3.90;;;0.10;14.20;;;-0.12;58.04;99948.84;5134775;23;20231;-66
2022/03/31 04:32:51;;;;;;;6.15;4.20;;;0.10;14.30;;;-0.11;57.91;99950.53;4957996;29;20212;-66
2022/03/31 04:35:22;;;;;;;6.80;3.63;;;0.10;14.40;;;-0.15;58.21;99951.84;4958476;28;20220;-68
2022/03/31 04:37:51;;;;;;;10.50;4.25;;;0.10;14.20;;;-0.19;58.25;99958.44;4961754;29;20588;-67
2022/03/31 04:40:21;;;;;;;8.52;5.03;;;0.00;14.10;;;-0.20;58.24;99947.00;4961909;29;20180;-68
2022/03/31 04:42:50;;;;;;;5.35;3.72;;;0.00;14.20;;;-0.23;57.97;99957.09;4963204;28;20196;-67
2022/03/31 04:45:20;;;;;;;6.80;3.78;;;0.00;14.30;;;-0.21;58.64;99960.44;5023010;23;20234;-68
2022/03/31 04:47:49;;;;;;;4.25;3.10;;;0.00;14.30;;;-0.24;58.31;99963.41;4976749;28;20176;-68
2022/03/31 04:50:18;;;;;;;8.05;3.92;;;0.00;14.40;;;-0.24;58.36;99961.56;4991467;28;20250;-67
2022/03/31 04:52:49;;;;;;;4.07;3.70;;;0.00;14.40;;;-0.22;58.33;99958.75;4976392;28;20190;-68
2022/03/31 04:55:18;;;;;;;4.75;3.42;;;0.00;14.40;;;-0.21;58.28;99971.06;4976276;28;20242;-67
2022/03/31 04:57:47;;;;;;;5.90;4.53;;;0.00;14.60;;;-0.25;58.63;99967.06;4974943;28;20195;-69
2022/03/31 05:00:17;;;;;;;6.45;4.35;;;-0.10;15.60;;;-0.27;58.30;99964.53;4976059;28;20214;-68
2022/03/31 05:02:46;;;;;;;5.45;3.50;;;-0.10;14.60;;;-0.25;58.52;99975.88;4975974;28;20200;-68
2022/03/31 05:05:15;;;;;;;7.65;3.95;;;-0.10;15.00;;;-0.29;58.26;99969.16;4975932;28;20695;-67
2022/03/31 05:07:45;;;;;;;7.22;3.60;;;-0.10;14.80;;;-0.21;58.48;99963.94;4975865;28;20210;-68
2022/03/31 05:10:15;;;;;;;7.18;3.95;;;-0.10;15.00;;;-0.19;58.38;99966.41;4975724;28;20187;-67
2022/03/31 05:12:44;;;;;;;5.72;3.80;;;0.00;14.90;;;-0.18;57.98;99966.25;4974463;28;20294;-66
2022/03/31 05:15:13;;;;;;;21.55;7.55;;;0.00;14.70;;;-0.20;58.17;99973.59;4976298;28;20638;-67
2022/03/31 05:17:42;;;;;;;6.18;4.63;;;0.00;14.70;;;-0.10;57.97;99976.16;4976058;28;20247;-66
2022/03/31 05:20:14;;;;;;;5.65;3.85;;;0.00;14.80;;;-0.13;58.42;99976.44;4976470;28;20179;-67
2022/03/31 05:22:43;;;;;;;11.70;3.60;;;0.10;14.50;;;-0.14;58.15;99977.41;4976655;28;20579;-66
2022/03/31 05:25:15;;;;;;;7.25;3.78;;;0.00;14.50;;;-0.04;58.31;99972.84;4975625;28;20318;-67
2022/03/31 05:27:45;;;;;;;5.65;3.83;;;0.10;14.70;;;-0.03;57.84;99979.81;4975882;28;20572;-67
2022/03/31 05:30:18;;;;;;;7.10;3.63;;;0.10;14.60;;;-0.10;58.26;99984.13;4975620;28;20187;-67
2022/03/31 05:32:48;;;;;;;5.43;4.43;;;0.10;14.70;;;-0.10;58.10;99981.47;4975701;28;20627;-67
2022/03/31 05:35:18;;;;;;;6.70;3.85;;;0.10;14.60;;;-0.03;58.32;99987.81;4975401;28;20296;-68
2022/03/31 05:37:48;;;;;;;5.13;2.80;;;0.10;14.60;;;0.03;57.44;99979.22;4975512;28;20183;-68
2022/03/31 05:40:19;;;;;;;7.82;4.25;;;0.20;14.30;;;-0.02;57.42;99982.34;4975054;28;20192;-68
2022/03/31 05:42:48;;;;;;;4.50;3.50;;;0.10;14.20;;;-0.01;57.90;99980.53;4975369;28;20191;-66
2022/03/31 05:45:19;;;;;;;5.55;4.20;;;0.10;14.20;;;0.02;57.57;99972.22;4975279;28;20576;-67
2022/03/31 05:47:48;;;;;;;4.78;3.33;;;0.10;14.30;;;0.03;57.39;99979.22;4974089;28;20263;-68
2022/03/31 05:50:17;;;;;;;8.45;3.65;;;0.20;14.20;;;0.02;57.54;99977.53;4975191;28;20178;-67
2022/03/31 05:52:47;;;;;;;3.25;2.85;;;0.20;14.30;;;0.01;57.80;99978.53;4975328;28;20222;-67
2022/03/31 05:55:20;;;;;;;4.50;3.20;;;0.10;14.20;;;0.07;57.66;99983.22;4975117;28;20203;-65
2022/03/31 05:57:50;;;;;;;5.97;3.63;;;0.20;14.20;;;0.06;57.59;99978.03;4976556;28;20651;-67
2022/03/31 06:00:22;;;;;;;5.55;3.65;;;0.20;14.10;;;0.05;57.41;99987.84;4957819;28;20195;-67
2022/03/31 06:02:53;;;;;;;8.18;4.65;;;0.20;14.20;;;0.10;57.21;99990.06;4974686;28;20199;-67
2022/03/31 06:05:23;;;;;;;4.70;3.70;;;0.20;14.10;;;0.17;57.41;99986.59;4957289;28;20250;-68
2022/03/31 06:07:52;;;;;;;7.68;4.85;;;0.30;14.00;;;0.14;57.07;99975.44;4974774;28;20172;-68
2022/03/31 06:10:23;;;;;;;5.72;4.13;;;0.30;13.80;;;0.11;57.12;99989.88;4974743;28;20187;-68
2022/03/31 06:12:54;;;;;;;8.93;4.03;;;0.30;13.70;;;0.21;57.28;99998.59;4974554;28;20656;-66
2022/03/31 06:15:23;;;;;;;4.50;3.30;;;0.30;13.90;;;0.19;57.13;99995.28;4974684;28;20290;-67
2022/03/31 06:17:52;;;;;;;11.30;4.32;;;0.30;13.80;;;0.28;56.78;100007.63;4974827;28;20207;-66
2022/03/31 06:20:21;;;;;;;8.10;4.82;;;0.30;13.70;;;0.32;56.60;100001.00;4974400;28;20183;-67
2022/03/31 06:22:50;;;;;;;4.90;2.70;;;0.40;13.50;;;0.31;56.39;99982.53;4974597;28;20571;-68
2022/03/31 06:25:20;;;;;;;4.15;3.30;;;0.50;13.10;;;0.29;56.58;99973.88;4974527;28;20211;-64
2022/03/31 06:27:51;;;;;;;5.78;4.05;;;0.50;13.00;;;0.31;56.58;99988.69;4974528;28;20167;-69
2022/03/31 06:30:20;;;;;;;8.35;4.72;;;0.50;13.00;;;0.42;56.20;99990.25;4974474;28;20311;-67
2022/03/31 06:32:49;;;;;;;5.10;4.40;;;0.50;13.00;;;0.57;56.07;99990.47;4974600;28;20192;-68
2022/03/31 06:35:19;;;;;;;5.18;3.80;;;0.60;12.90;;;0.58;55.95;99984.16;4990678;28;20713;-68
2022/03/31 06:37:49;;;;;;;4.30;3.45;;;0.70;12.40;;;0.64;55.55;99994.16;4974528;28;20540;-67
2022/03/31 06:40:19;;;;;;;4.18;3.30;;;0.70;12.30;;;0.61;55.78;99992.66;4974435;28;20589;-67
2022/03/31 06:42:52;;;;;;;7.20;4.15;;;0.80;12.10;;;0.51;55.53;100005.25;4974377;28;20223;-68
2022/03/31 06:45:21;;;;;;;5.95;4.22;;;0.70;11.90;;;0.56;55.67;100002.94;4974139;28;20222;-68
2022/03/31 06:47:57;;;;;;;12.38;4.22;;;0.70;12.10;;;0.71;55.37;100000.50;4974487;28;20565;-67
2022/03/31 06:50:33;;;;;;;8.93;3.75;;;0.80;12.00;;;0.80;54.68;100005.72;4973747;28;20176;-66
2022/03/31 06:53:03;;;;;;;7.43;4.32;;;0.90;11.50;;;0.80;54.88;100005.72;4973992;28;20274;-68
2022/03/31 06:55:33;;;;;;;3.95;3.13;;;0.90;11.20;;;0.72;54.25;100004.84;4974010;28;20211;-68
2022/03/31 06:58:03;;;;;;;15.93;5.57;;;0.90;11.00;;;0.79;54.75;100003.19;4974156;28;20615;-67
2022/03/31 07:00:32;;;;;;;7.15;4.18;;;0.90;11.10;;;0.81;54.61;100018.03;4973841;28;20370;-68
2022/03/31 07:03:01;;;;;;;5.47;3.90;;;0.90;11.00;;;1.05;54.47;100014.63;4974456;28;20270;-68
2022/03/31 07:05:31;;;;;;;5.35;4.15;;;1.10;10.90;;;1.20;53.78;100014.81;4974190;28;20223;-67
2022/03/31 07:08:02;;;;;;;5.57;4.45;;;1.20;10.50;;;1.24;53.62;100009.00;4979631;28;20254;-67
2022/03/31 07:10:31;;;;;;;4.70;4.18;;;1.30;10.10;;;1.33;53.31;100006.31;4992080;28;20245;-69
2022/03/31 07:13:02;;;;;;;8.30;4.70;;;1.40;9.80;;;1.19;53.47;100005.16;4993138;28;20258;-68
2022/03/31 07:15:33;;;;;;;5.93;4.18;;;1.40;9.40;;;1.32;53.30;100005.50;4993004;28;20232;-67
2022/03/31 07:18:03;;;;;;;6.55;3.88;;;1.40;9.70;;;1.40;52.85;100013.53;4993062;28;20640;-69
2022/03/31 07:20:33;;;;;;;5.30;3.88;;;1.50;9.50;;;1.49;52.76;100007.19;4993241;28;20628;-67
2022/03/31 07:23:04;;;;;;;8.05;4.57;;;1.60;9.30;;;1.68;52.58;100006.03;4992979;28;20203;-67
2022/03/31 07:25:34;;;;;;;5.28;4.78;;;1.70;9.00;;;1.79;52.30;100004.88;4985462;28;20218;-69
2022/03/31 07:28:05;;;;;;;4.85;3.90;;;1.90;8.70;;;1.56;52.36;100002.84;4973823;28;20198;-68
2022/03/31 07:30:34;;;;;;;5.93;4.13;;;1.70;8.50;;;1.63;52.54;99995.88;4973532;28;20208;-67
2022/03/31 07:33:05;;;;;;;5.80;3.88;;;1.70;15.30;;;1.78;52.32;99996.03;4973860;28;20231;-67
2022/03/31 07:35:38;;;;;;;5.38;4.38;;;1.80;8.80;;;1.83;51.94;99988.38;4977001;28;20584;-67
2022/03/31 07:38:08;;;;;;;7.15;4.53;;;1.90;8.40;;;1.89;51.73;99982.31;4978343;28;20259;-67
2022/03/31 07:40:40;;;;;;;8.90;5.35;;;2.00;8.20;;;1.88;51.94;99983.34;4977764;28;20182;-68
2022/03/31 07:43:11;;;;;;;5.75;4.75;;;2.00;8.30;;;2.00;51.49;99978.47;4977842;28;20214;-67
2022/03/31 07:45:41;;;;;;;8.45;4.18;;;2.10;8.20;;;2.05;51.37;99984.16;4977833;28;20215;-67
2022/03/31 07:48:15;;;;;;;6.57;4.68;;;2.10;7.80;;;2.03;51.51;99983.50;4978862;28;20238;-68
2022/03/31 07:50:44;;;;;;;5.78;4.88;;;2.10;7.70;;;2.15;51.20;99993.66;4977954;28;20647;-67
2022/03/31 07:53:14;;;;;;;8.38;4.90;;;2.20;7.50;;;2.24;51.17;99985.59;4973129;28;20278;-67
2022/03/31 07:55:43;;;;;;;5.10;4.65;;;2.20;7.50;;;2.34;50.73;99980.91;4974772;28;20270;-68
2022/03/31 07:58:13;;;;;;;5.15;4.18;;;2.40;7.00;;;2.45;50.64;99989.41;4975275;28;20171;-67
2022/03/31 08:00:43;;;;;;;5.80;4.32;;;2.50;7.20;;;2.71;49.83;99983.78;4974276;28;20280;-67
2022/03/31 08:03:12;;;;;;;7.20;5.28;;;2.70;6.60;;;2.51;50.07;99999.41;4974556;28;20298;-66
2022/03/31 08:05:42;;;;;;;4.43;3.90;;;;;;;2.37;50.35;99989.41;4972990;28;20298;-67
2022/03/31 08:08:11;;;;;;;9.38;5.30;;;2.50;5.80;;;2.52;50.18;99985.00;4973152;28;20199;-69
2022/03/31 08:10:41;;;;;;;12.20;5.20;;;2.60;6.30;;;2.73;49.73;99979.09;4973238;28;20596;-68
2022/03/31 08:13:13;;;;;;;6.53;3.72;;;2.70;6.00;;;2.69;49.45;99990.31;4976883;28;20184;-65
2022/03/31 08:15:42;;;;;;;9.25;5.18;;;2.80;5.60;;;2.77;49.68;99990.25;4976617;28;20707;-68
2022/03/31 08:18:12;;;;;;;6.72;5.38;;;2.80;5.90;;;2.92;49.16;99984.00;4976722;28;20196;-68
2022/03/31 08:20:41;;;;;;;7.90;3.45;;;2.90;5.50;;;3.11;48.75;99979.22;4961215;28;20286;-67
2022/03/31 08:23:10;;;;;;;7.03;4.43;;;3.10;5.20;;;3.22;48.48;99986.84;4958370;28;20216;-67
2022/03/31 08:25:41;;;;;;;7.30;4.53;;;3.20;4.70;;;3.14;48.58;99981.56;4976696;28;20215;-68
2022/03/31 08:28:10;;;;;;;5.60;3.58;;;3.20;4.50;;;3.14;48.41;99974.38;4976390;28;20624;-68
2022/03/31 08:30:40;;;;;;;7.63;5.60;;;3.30;4.40;;;3.20;48.20;99972.81;4976818;28;20187;-67
2022/03/31 08:33:10;;;;;;;8.30;4.68;;;3.30;4.20;;;3.55;48.01;99985.63;4976787;28;20266;-67
2022/03/31 08:35:45;;;;;;;10.85;4.78;;;3.50;4.20;;;3.69;47.26;99979.47;4976942;28;20718;-67
2022/03/31 08:38:14;;;;;;;8.63;4.05;;;3.70;3.50;;;3.81;46.98;99982.56;4977018;28;20207;-67
2022/03/31 08:40:50;;;;;;;6.75;4.43;;;3.80;3.30;;;3.74;46.89;99982.44;4976285;28;20182;-67
2022/03/31 08:43:21;;;;;;;6.43;3.83;;;3.80;2.90;;;3.76;47.00;99990.31;4976695;28;20206;-66
2022/03/31 08:45:55;;;;;;;8.02;4.45;;;3.80;2.80;;;3.78;47.01;99974.88;4975944;28;20305;-67
2022/03/31 08:48:26;;;;;;;7.85;5.13;;;3.80;2.90;;;3.90;46.64;99976.97;4976181;28;20187;-67
2022/03/31 08:50:55;;;;;;;9.25;5.75;;;3.90;2.70;;;3.80;46.92;99979.06;4975733;28;20196;-67
2022/03/31 08:53:24;;;;;;;12.30;5.28;;;4.00;2.30;;;4.15;46.24;99985.59;4975899;28;20184;-68
2022/03/31 08:55:53;;;;;;;15.85;5.30;;;4.10;2.50;;;4.28;46.12;99980.44;4976177;28;20213;-67
2022/03/31 08:58:22;;;;;;;8.93;4.82;;;4.20;2.10;;;4.50;45.48;99976.00;4976018;28;20271;-67
2022/03/31 09:00:53;;;;;;;6.03;3.80;;;4.40;1.80;;;4.52;45.12;99984.69;4975860;28;20199;-68
2022/03/31 09:03:32;;;;;;;5.85;4.43;;;4.60;1.40;;;4.32;45.67;99981.72;4975912;28;20283;-69
2022/03/31 09:06:03;;;;;;;10.13;5.60;;;4.40;1.50;;;4.54;45.75;99974.63;4975958;28;20630;-69
2022/03/31 09:08:33;;;;;;;8.73;5.93;;;4.50;1.50;;;4.53;45.78;99966.75;4975810;28;20579;-66
2022/03/31 09:11:03;;;;;;;5.90;4.65;;;4.60;1.40;;;4.91;44.80;99972.81;4975261;28;20175;-66
2022/03/31 09:13:36;;;;;;;8.23;4.90;;;4.80;1.00;;;4.86;45.01;99970.69;4975551;28;20204;-68
2022/03/31 09:16:10;;;;;;;9.73;5.00;;;4.90;1.00;;;4.69;44.91;99967.41;4975391;28;20239;-68
2022/03/31 09:18:42;;;;;;;11.02;6.32;;;4.80;1.00;;;5.01;44.54;99963.44;4975825;28;20178;-67
2022/03/31 09:21:12;;;;;;;17.13;6.68;;;5.00;1.00;;;5.16;44.82;99960.72;4975526;28;20172;-69
2022/03/31 09:23:46;;;;;;;7.28;5.65;;;5.10;1.00;;;5.19;44.43;99971.91;4975210;28;20618;-67
2022/03/31 09:26:19;;;;;;;15.25;5.07;;;5.20;1.00;;;5.05;44.37;99978.13;4975232;28;20207;-69
2022/03/31 09:28:50;;;;;;;16.25;6.82;;;5.20;1.00;;;4.81;45.07;99965.88;4975593;28;20660;-68
2022/03/31 09:31:27;;;;;;;5.82;4.85;;;4.90;1.00;;;5.14;44.56;99976.16;4975401;28;20540;-67
2022/03/31 09:33:59;;;;;;;10.75;7.50;;;5.10;1.00;;;5.38;43.91;99970.44;4975197;28;20555;-67
2022/03/31 09:36:28;;;;;;;8.80;5.28;;;5.30;1.00;;;5.25;44.14;99971.16;4975085;28;20215;-67
2022/03/31 09:39:00;;;;;;;6.20;4.88;;;5.30;1.00;;;5.06;44.15;99970.91;4975198;28;20250;-68
2022/03/31 09:41:32;;;;;;;6.63;3.90;;;5.20;1.00;;;5.13;44.49;99969.16;4975167;28;20190;-68
2022/03/31 09:44:04;;;;;;;5.30;4.80;;;5.20;1.00;;;5.39;43.88;99965.91;4974953;28;20278;-68
2022/03/31 09:46:38;;;;;;;6.90;5.18;;;5.30;1.00;;;5.56;43.67;99968.16;4974896;28;20215;-67
2022/03/31 09:49:14;;;;;;;10.48;6.13;;;5.50;1.00;;;6.07;42.91;99973.34;4974607;28;20179;-67
2022/03/31 09:51:46;;;;;;;7.68;5.03;;;5.80;1.00;;;5.98;42.68;99961.94;4974774;28;20189;-69
2022/03/31 09:54:15;;;;;;;5.70;4.75;;;6.00;1.00;;;5.71;43.03;99967.25;4974572;28;20187;-68
2022/03/31 09:56:45;;;;;;;6.10;4.63;;;5.80;1.00;;;5.64;43.59;99946.56;4974502;28;20208;-67
2022/03/31 09:59:18;;;;;;;6.60;4.55;;;5.70;1.00;;;5.77;43.67;99961.09;4974965;28;20667;-68
2022/03/31 10:01:55;;;;;;;10.73;5.18;;;5.80;1.00;;;6.20;42.96;99964.56;4974415;28;20176;-69
2022/03/31 10:04:25;;;;;;;7.78;4.70;;;6.00;1.00;;;6.22;42.91;99949.91;4974299;28;20199;-67
2022/03/31 10:06:57;;;;;;;8.90;6.40;;;6.10;1.00;;;6.67;42.25;99951.22;4973853;28;20218;-68
2022/03/31 10:09:26;;;;;;;8.70;5.10;;;6.50;1.00;;;6.85;41.29;99950.66;4973973;28;20525;-67
2022/03/31 10:12:08;;;;;;;12.05;7.13;;;6.80;1.00;;;6.79;41.74;99957.66;4973959;28;20267;-68
2022/03/31 10:14:49;;;;;;;12.38;7.28;;;6.70;1.00;;;6.91;42.17;99953.38;4973726;28;20168;-69
2022/03/31 10:17:27;;;;;;;11.60;6.00;;;6.80;1.00;;;7.23;42.05;99949.13;4973770;28;20652;-68
2022/03/31 10:20:09;;;;;;;8.95;5.57;;;7.00;1.00;;;7.35;41.83;99938.59;4973565;28;20190;-67
2022/03/31 10:25:37;;;;;;;11.32;6.43;;;7.30;1.00;;;7.64;41.01;99940.91;4973387;28;20222;-68
2022/03/31 10:28:12;;;;;;;20.17;6.32;;;7.40;1.00;;;7.51;41.22;99937.34;4973747;28;20184;-67
2022/03/31 10:30:53;;;;;;;14.55;5.45;;;7.40;1.00;;;7.55;40.66;99917.09;4973613;28;20573;-68
2022/03/31 10:33:37;;;;;;;8.50;6.25;;;7.60;1.00;;;7.37;41.28;99923.88;4973629;28;20199;-69
2022/03/31 10:36:12;;;;;;;8.02;7.20;;;7.50;1.00;;;7.78;40.76;99920.19;4973956;28;20215;-67
2022/03/31 10:38:53;;;;;;;10.30;7.32;;;7.60;1.00;;;7.83;40.77;99921.25;4974096;28;20181;-67
2022/03/31 10:41:31;;;;;;;33.83;22.33;;;7.80;1.00;;;7.80;40.81;99923.50;4973321;28;20207;-67
2022/03/31 10:44:04;;;;;;;9.73;6.95;;;7.80;1.00;;;8.10;40.57;99913.94;4973053;28;20171;-67
2022/03/31 10:46:33;;;;;;;14.25;7.93;;;7.90;1.00;;;8.23;40.18;99932.78;5056846;23;20229;-67
2022/03/31 10:49:10;;;;;;;19.25;8.55;;;8.10;1.00;;;7.90;40.49;99918.53;4975098;28;20659;-68
2022/03/31 10:51:42;;;;;;;23.65;13.07;;;7.90;1.00;;;7.85;40.45;99915.63;4975662;28;20266;-66
2022/03/31 10:54:24;;;;;;;12.10;7.57;;;7.80;1.00;;;7.70;40.84;99928.47;4975355;28;20195;-68
2022/03/31 10:57:07;;;;;;;14.80;8.82;;;7.80;1.00;;;7.68;40.94;99922.47;4976119;28;20242;-67